createdAt,value
2018-08-24T00:01:08.318Z,2.40
2018-08-24T00:03:42.987Z,2.83
2018-08-24T00:06:17.658Z,2.83
2018-08-24T00:08:52.193Z,3.23
2018-08-24T00:11:27.122Z,3.73
2018-08-24T00:14:01.716Z,2.90
2018-08-24T00:16:40.469Z,3.03
2018-08-24T00:19:16.176Z,3.00
2018-08-24T00:21:50.657Z,2.97
2018-08-24T00:24:25.209Z,3.60
2018-08-24T00:26:59.753Z,2.73
2018-08-24T00:29:34.336Z,3.60
2018-08-24T00:32:08.951Z,2.90
2018-08-24T00:34:43.747Z,2.03
2018-08-24T00:37:18.796Z,1.37
2018-08-24T00:39:53.448Z,1.50
2018-08-24T00:42:28.277Z,1.70
2018-08-24T00:45:02.823Z,1.40
2018-08-24T00:47:37.401Z,1.50
2018-08-24T00:50:12.044Z,1.80
2018-08-24T00:52:46.736Z,2.00
2018-08-24T00:55:21.589Z,1.70
2018-08-24T00:57:56.253Z,2.13
2018-08-24T01:00:36.028Z,1.77
2018-08-24T01:03:11.449Z,2.30
2018-08-24T01:05:45.908Z,2.00
2018-08-24T01:08:20.504Z,2.13
2018-08-24T01:10:55.153Z,2.00
2018-08-24T01:13:29.744Z,1.90
2018-08-24T01:16:04.314Z,2.23
2018-08-24T01:18:44.131Z,2.40
2018-08-24T01:21:18.660Z,1.80
2018-08-24T01:23:53.251Z,2.37
2018-08-24T01:26:28.122Z,2.27
2018-08-24T01:29:03.030Z,2.80
2018-08-24T01:31:37.712Z,3.10
2018-08-24T01:34:12.355Z,3.23
2018-08-24T01:36:47.014Z,4.50
2018-08-24T01:39:21.737Z,4.37
2018-08-24T01:41:56.544Z,5.60
2018-08-24T01:44:31.469Z,6.23
2018-08-24T01:47:06.109Z,8.30
2018-08-24T01:49:40.816Z,8.83
2018-08-24T01:52:15.338Z,9.83
2018-08-24T01:54:50.067Z,10.00
2018-08-24T01:57:24.648Z,9.93
2018-08-24T01:59:59.649Z,11.07
2018-08-24T02:02:34.592Z,10.30
2018-08-24T02:05:09.421Z,10.80
2018-08-24T02:07:44.059Z,9.97
2018-08-24T02:10:24.018Z,11.13
2018-08-24T02:13:04.109Z,12.07
2018-08-24T02:15:44.841Z,12.43
2018-08-24T02:18:24.840Z,12.13
2018-08-24T02:21:04.657Z,12.40
2018-08-24T02:23:39.678Z,13.17
2018-08-24T02:26:14.436Z,11.97
2018-08-24T02:28:49.187Z,12.13
2018-08-24T02:31:24.489Z,12.30
2018-08-24T02:33:59.114Z,13.53
2018-08-24T02:36:33.813Z,14.97
2018-08-24T02:39:11.820Z,13.97
2018-08-24T02:41:46.386Z,15.73
2018-08-24T02:44:25.218Z,15.63
2018-08-24T02:46:59.801Z,15.50
2018-08-24T02:49:34.377Z,17.17
2018-08-24T02:52:08.985Z,17.47
2018-08-24T02:54:43.579Z,17.47
2018-08-24T02:57:18.381Z,18.10
2018-08-24T02:59:53.001Z,18.67
2018-08-24T03:02:28.269Z,18.63
2018-08-24T03:05:03.180Z,19.67
2018-08-24T03:07:37.966Z,21.33
2018-08-24T03:10:12.645Z,20.83
2018-08-24T03:12:47.227Z,21.97
2018-08-24T03:15:21.985Z,22.13
2018-08-24T03:17:56.753Z,21.97
2018-08-24T03:20:31.589Z,22.77
2018-08-24T03:23:06.432Z,22.37
2018-08-24T03:25:41.333Z,22.50
2018-08-24T03:28:15.857Z,22.23
2018-08-24T03:30:50.400Z,23.20
2018-08-24T03:33:25.024Z,21.27
2018-08-24T03:35:59.736Z,21.67
2018-08-24T03:38:34.333Z,18.07
2018-08-24T03:41:09.169Z,18.40
2018-08-24T03:43:43.821Z,17.13
2018-08-24T03:46:18.898Z,16.43
2018-08-24T03:48:53.353Z,15.60
2018-08-24T03:51:28.029Z,14.37
2018-08-24T03:54:06.845Z,14.23
2018-08-24T03:56:41.881Z,12.73
2018-08-24T03:59:16.445Z,10.70
2018-08-24T04:01:51.429Z,9.30
2018-08-24T04:04:29.581Z,10.80
2018-08-24T04:07:04.104Z,11.33
2018-08-24T04:09:39.001Z,10.90
2018-08-24T04:12:13.581Z,9.83
2018-08-24T04:14:48.260Z,10.13
2018-08-24T04:17:28.180Z,10.60
2018-08-24T04:20:02.875Z,11.63
2018-08-24T04:22:37.581Z,11.13
2018-08-24T04:25:12.393Z,11.50
2018-08-24T04:27:47.071Z,11.40
2018-08-24T04:30:21.780Z,13.17
2018-08-24T04:32:56.390Z,12.23
2018-08-24T04:35:36.698Z,12.43
2018-08-24T04:38:11.282Z,13.10
2018-08-24T04:40:45.930Z,12.97
2018-08-24T04:43:20.513Z,14.43
2018-08-24T04:45:55.069Z,14.40
2018-08-24T04:48:29.836Z,13.43
2018-08-24T04:51:04.402Z,13.77
2018-08-24T04:53:38.884Z,13.40
2018-08-24T04:56:13.521Z,13.62
2018-08-24T04:58:48.291Z,14.27
2018-08-24T05:01:23.146Z,14.93
2018-08-24T05:03:58.644Z,17.13
2018-08-24T05:06:33.265Z,16.77
2018-08-24T05:09:10.139Z,16.27
2018-08-24T05:11:44.533Z,16.80
2018-08-24T05:14:19.174Z,16.80
2018-08-24T05:16:53.833Z,16.07
2018-08-24T05:19:28.481Z,16.03
2018-08-24T05:22:03.112Z,15.87
2018-08-24T05:24:37.786Z,17.20
2018-08-24T05:27:13.192Z,16.80
2018-08-24T05:29:47.737Z,16.53
2018-08-24T05:32:22.382Z,15.87
2018-08-24T05:34:57.035Z,16.90
2018-08-24T05:37:31.685Z,17.13
2018-08-24T05:40:06.257Z,15.27
2018-08-24T05:42:40.816Z,16.40
2018-08-24T05:45:16.065Z,17.20
2018-08-24T05:47:50.474Z,17.10
2018-08-24T05:50:25.507Z,17.13
2018-08-24T05:53:00.081Z,16.80
2018-08-24T05:55:34.694Z,16.33
2018-08-24T05:58:10.241Z,15.80
2018-08-24T06:00:46.336Z,16.17
2018-08-24T06:03:20.858Z,16.27
2018-08-24T06:06:01.869Z,16.30
2018-08-24T06:08:37.049Z,17.50
2018-08-24T06:11:11.797Z,16.47
2018-08-24T06:13:46.449Z,16.80
2018-08-24T06:16:20.945Z,18.00
2018-08-24T06:18:55.459Z,17.67
2018-08-24T06:21:30.553Z,18.33
2018-08-24T06:24:12.213Z,17.57
2018-08-24T06:26:46.853Z,17.43
2018-08-24T06:29:21.377Z,19.00
2018-08-24T06:31:55.892Z,17.53
2018-08-24T06:34:30.921Z,17.60
2018-08-24T06:37:05.441Z,18.63
2018-08-24T06:39:40.281Z,18.43
2018-08-24T06:42:14.802Z,17.53
2018-08-24T06:44:49.501Z,18.47
2018-08-24T06:47:24.383Z,17.40
2018-08-24T06:49:58.788Z,17.17
2018-08-24T06:52:33.444Z,19.00
2018-08-24T06:55:08.209Z,17.27
2018-08-24T06:57:42.769Z,19.33
2018-08-24T07:00:21.332Z,18.17
2018-08-24T07:02:56.029Z,18.23
2018-08-24T07:05:31.556Z,18.97
2018-08-24T07:08:06.005Z,18.27
2018-08-24T07:10:40.604Z,17.93
2018-08-24T07:13:15.645Z,18.63
2018-08-24T07:15:50.290Z,17.87
2018-08-24T07:18:25.229Z,17.83
2018-08-24T07:21:00.089Z,17.42
2018-08-24T07:23:35.193Z,18.67
2018-08-24T07:26:09.793Z,17.73
2018-08-24T07:28:44.741Z,16.97
2018-08-24T07:31:19.297Z,18.13
2018-08-24T07:33:53.946Z,16.37
2018-08-24T07:36:28.637Z,17.13
2018-08-24T07:39:04.039Z,16.97
2018-08-24T07:41:38.915Z,16.97
2018-08-24T07:44:13.543Z,16.80
2018-08-24T07:46:48.246Z,16.47
2018-08-24T07:49:23.093Z,17.57
2018-08-24T07:51:57.849Z,17.97
2018-08-24T07:54:32.484Z,18.07
2018-08-24T07:57:07.222Z,16.43
2018-08-24T07:59:41.856Z,16.00
2018-08-24T08:02:16.877Z,15.80
2018-08-24T08:04:52.746Z,16.40
2018-08-24T08:07:27.098Z,16.47
2018-08-24T08:10:01.622Z,16.30
2018-08-24T08:12:36.252Z,16.07
2018-08-24T08:15:11.424Z,15.73
2018-08-24T08:17:46.064Z,14.57
2018-08-24T08:20:20.815Z,15.10
2018-08-24T08:22:55.353Z,13.17
2018-08-24T08:25:30.001Z,14.13
2018-08-24T08:28:04.542Z,14.27
2018-08-24T08:30:39.225Z,14.40
2018-08-24T08:33:13.748Z,14.17
2018-08-24T08:35:48.583Z,13.23
2018-08-24T08:38:23.381Z,13.60
2018-08-24T08:40:58.033Z,12.77
2018-08-24T08:43:32.675Z,11.37
2018-08-24T08:46:07.433Z,11.37
2018-08-24T08:48:42.138Z,11.37
2018-08-24T08:51:16.784Z,10.70
2018-08-24T08:53:51.473Z,8.68
2018-08-24T08:56:26.191Z,8.73
2018-08-24T08:59:00.749Z,6.03
2018-08-24T09:01:35.391Z,5.40
2018-08-24T09:04:09.965Z,6.00
2018-08-24T09:06:45.050Z,7.37
2018-08-24T09:09:19.652Z,6.43
2018-08-24T09:11:54.471Z,7.73
2018-08-24T09:14:29.219Z,6.80
2018-08-24T09:17:09.164Z,6.13
2018-08-24T09:19:49.085Z,5.73
2018-08-24T09:22:29.084Z,6.33
2018-08-24T09:25:08.988Z,5.10
2018-08-24T09:27:48.861Z,4.90
2018-08-24T09:30:24.694Z,4.77
2018-08-24T09:32:59.423Z,4.77
2018-08-24T09:35:34.233Z,4.63
2018-08-24T09:38:08.921Z,4.00
2018-08-24T09:40:48.877Z,4.63
2018-08-24T09:43:29.345Z,3.90
2018-08-24T09:46:04.064Z,4.07
2018-08-24T09:48:44.100Z,4.23
2018-08-24T09:51:24.330Z,3.90
2018-08-24T09:54:05.376Z,3.30
2018-08-24T09:56:40.870Z,4.22
2018-08-24T09:59:15.429Z,3.30
2018-08-24T10:01:55.484Z,3.53
2018-08-24T10:04:35.297Z,3.63
2018-08-24T10:07:15.270Z,3.13
2018-08-24T10:09:49.901Z,3.43
2018-08-24T10:12:24.396Z,3.90
2018-08-24T10:14:59.014Z,3.03
2018-08-24T10:17:33.705Z,3.87
2018-08-24T10:20:08.360Z,3.03
2018-08-24T10:22:42.917Z,3.23
2018-08-24T10:25:17.582Z,3.07
2018-08-24T10:27:52.161Z,3.17
2018-08-24T10:30:26.895Z,2.73
2018-08-24T10:33:01.745Z,3.20
2018-08-24T10:35:36.412Z,3.40
2018-08-24T10:38:11.868Z,2.70
2018-08-24T10:40:46.590Z,3.13
2018-08-24T10:43:21.466Z,2.63
2018-08-24T10:45:56.138Z,2.87
2018-08-24T10:48:30.869Z,2.87
2018-08-24T10:51:05.746Z,2.60
2018-08-24T10:53:40.434Z,2.70
2018-08-24T10:56:15.172Z,3.10
2018-08-24T10:58:49.773Z,2.90
2018-08-24T11:01:24.437Z,2.90
2018-08-24T11:03:59.025Z,2.60
2018-08-24T11:06:34.007Z,2.47
2018-08-24T11:09:09.633Z,2.53
2018-08-24T11:11:44.408Z,1.97
2018-08-24T11:14:18.949Z,2.00
2018-08-24T11:16:53.852Z,1.67
2018-08-24T11:19:28.533Z,1.70
2018-08-24T11:22:03.040Z,1.40
2018-08-24T11:24:37.557Z,1.43
2018-08-24T11:27:12.259Z,1.40
2018-08-24T11:29:47.045Z,1.80
2018-08-24T11:32:21.649Z,1.73
2018-08-24T11:34:56.389Z,2.10
2018-08-24T11:37:37.632Z,2.10
2018-08-24T11:40:28.904Z,2.10
2018-08-24T11:43:05.677Z,1.87
2018-08-24T11:45:40.238Z,1.70
2018-08-24T11:48:14.917Z,1.60
2018-08-24T11:50:49.609Z,1.30
2018-08-24T11:53:43.169Z,1.60
2018-08-24T11:56:17.648Z,1.80
2018-08-24T11:58:52.448Z,1.40
2018-08-24T12:01:27.060Z,2.00
2018-08-24T12:04:02.013Z,1.70
2018-08-24T12:06:36.560Z,1.40
2018-08-24T12:09:11.566Z,1.60
2018-08-24T12:11:46.061Z,1.77
2018-08-24T12:14:20.672Z,1.60
2018-08-24T12:16:55.213Z,1.33
2018-08-24T12:19:29.889Z,1.70
2018-08-24T12:22:04.761Z,1.53
2018-08-24T12:24:39.407Z,1.70
2018-08-24T12:27:14.145Z,1.70
2018-08-24T12:29:48.704Z,1.60
2018-08-24T12:32:23.411Z,1.77
2018-08-24T12:34:58.081Z,1.70
2018-08-24T12:37:38.474Z,1.73
2018-08-24T12:40:13.536Z,2.10
2018-08-24T12:42:48.101Z,2.13
2018-08-24T12:45:22.581Z,1.73
2018-08-24T12:47:57.527Z,1.53
2018-08-24T12:50:32.303Z,1.67
2018-08-24T12:53:06.985Z,1.90
2018-08-24T12:55:41.526Z,1.83
2018-08-24T12:58:16.148Z,1.80
2018-08-24T13:00:51.036Z,1.63
2018-08-24T13:03:26.049Z,2.00
2018-08-24T13:06:00.586Z,2.20
2018-08-24T13:08:35.177Z,1.63
2018-08-24T13:11:09.781Z,1.93
2018-08-24T13:13:44.844Z,1.83
2018-08-24T13:16:19.353Z,1.90
2018-08-24T13:18:54.262Z,2.13
2018-08-24T13:21:28.852Z,2.00
2018-08-24T13:24:03.446Z,1.80
2018-08-24T13:26:37.942Z,2.27
2018-08-24T13:29:12.657Z,2.10
2018-08-24T13:31:47.244Z,2.07
2018-08-24T13:34:34.842Z,2.10
2018-08-24T13:37:09.466Z,1.97
2018-08-24T13:39:43.967Z,1.90
2018-08-24T13:42:18.592Z,2.10
2018-08-24T13:44:53.167Z,2.33
2018-08-24T13:47:27.849Z,1.57
2018-08-24T13:50:02.434Z,1.63
2018-08-24T13:52:37.277Z,1.83
2018-08-24T13:55:11.815Z,2.00
2018-08-24T13:57:46.301Z,1.80
2018-08-24T14:00:21.284Z,1.50
2018-08-24T14:02:56.345Z,1.70
2018-08-24T14:05:30.992Z,2.10
2018-08-24T14:08:05.421Z,2.00
2018-08-24T14:10:40.086Z,1.90
2018-08-24T14:13:14.767Z,1.50
2018-08-24T14:15:49.269Z,1.50
2018-08-24T14:18:24.069Z,1.50
2018-08-24T14:20:58.745Z,1.50
2018-08-24T14:23:33.249Z,1.60
2018-08-24T14:26:08.417Z,1.47
2018-08-24T14:28:43.190Z,1.40
2018-08-24T14:31:17.800Z,1.67
2018-08-24T14:33:52.542Z,1.57
2018-08-24T14:36:27.126Z,1.60
2018-08-24T14:39:01.793Z,1.47
2018-08-24T14:41:36.541Z,1.53
2018-08-24T14:44:11.136Z,1.40
2018-08-24T14:46:46.040Z,1.53
2018-08-24T14:49:20.695Z,1.53
2018-08-24T14:51:55.473Z,1.40
2018-08-24T14:54:30.260Z,1.70
2018-08-24T14:57:05.041Z,1.40
2018-08-24T14:59:40.413Z,1.50
2018-08-24T15:02:15.105Z,1.57
2018-08-24T15:05:05.179Z,1.63
2018-08-24T15:07:41.766Z,1.40
2018-08-24T15:10:26.726Z,1.67
2018-08-24T15:13:12.403Z,1.70
2018-08-24T15:15:47.484Z,1.80
2018-08-24T15:18:22.326Z,1.70
2018-08-24T15:20:56.876Z,1.67
2018-08-24T15:23:31.446Z,1.40
2018-08-24T15:26:06.429Z,1.55
2018-08-24T15:28:40.997Z,1.80
2018-08-24T15:31:15.629Z,1.30
2018-08-24T15:33:50.251Z,1.60
2018-08-24T15:36:24.892Z,1.47
2018-08-24T15:38:59.817Z,1.40
2018-08-24T15:41:34.533Z,1.67
2018-08-24T15:44:09.365Z,1.20
2018-08-24T15:46:44.066Z,1.10
2018-08-24T15:49:19.645Z,1.60
2018-08-24T15:51:54.166Z,1.40
2018-08-24T15:54:29.127Z,1.50
2018-08-24T15:57:03.657Z,1.40
2018-08-24T15:59:38.406Z,1.50
2018-08-24T16:02:13.333Z,1.45
2018-08-24T16:04:48.026Z,1.50
2018-08-24T16:07:22.709Z,1.90
2018-08-24T16:09:57.655Z,1.60
2018-08-24T16:12:32.161Z,1.47
2018-08-24T16:15:07.513Z,1.40
2018-08-24T16:17:42.150Z,1.50
2018-08-24T16:20:16.737Z,1.33
2018-08-24T16:22:51.436Z,1.30
2018-08-24T16:25:25.982Z,1.70
2018-08-24T16:28:00.421Z,2.20
2018-08-24T16:30:35.074Z,1.60
2018-08-24T16:33:09.737Z,1.37
2018-08-24T16:35:44.473Z,1.60
2018-08-24T16:38:19.064Z,1.50
2018-08-24T16:40:53.633Z,1.83
2018-08-24T16:43:28.433Z,1.70
2018-08-24T16:46:03.197Z,1.83
2018-08-24T16:48:37.853Z,1.43
2018-08-24T16:51:12.567Z,1.50
2018-08-24T16:56:51.925Z,1.50
2018-08-24T16:59:26.820Z,1.77
2018-08-24T17:02:01.243Z,1.90
2018-08-24T17:04:35.961Z,1.57
2018-08-24T17:07:10.769Z,2.10
2018-08-24T17:09:45.397Z,1.40
2018-08-24T17:12:20.225Z,1.90
2018-08-24T17:14:54.647Z,1.43
2018-08-24T17:17:29.421Z,1.65
2018-08-24T17:20:04.305Z,1.72
2018-08-24T17:22:39.174Z,1.40
2018-08-24T17:25:13.699Z,1.80
2018-08-24T17:27:48.421Z,2.10
2018-08-24T17:30:23.032Z,1.50
2018-08-24T17:32:57.665Z,1.60
2018-08-24T17:35:32.274Z,2.07
2018-08-24T17:38:07.057Z,2.00
2018-08-24T17:40:41.721Z,1.50
2018-08-24T17:43:16.494Z,1.37
2018-08-24T17:45:51.121Z,1.67
2018-08-24T17:48:25.786Z,1.20
2018-08-24T17:51:00.587Z,1.13
2018-08-24T17:53:35.177Z,1.67
2018-08-24T17:56:10.358Z,1.50
2018-08-24T17:58:44.929Z,1.20
2018-08-24T18:01:19.582Z,2.10
2018-08-24T18:03:54.249Z,1.40
2018-08-24T18:06:28.944Z,1.50
2018-08-24T18:09:05.434Z,1.47
2018-08-24T18:11:40.581Z,1.80
2018-08-24T18:14:15.401Z,1.57
2018-08-24T18:16:50.109Z,1.40
2018-08-24T18:19:25.120Z,1.60
2018-08-24T18:21:59.764Z,1.70
2018-08-24T18:24:34.625Z,1.30
2018-08-24T18:27:09.418Z,1.57
2018-08-24T18:29:44.484Z,1.63
2018-08-24T18:32:18.968Z,1.50
2018-08-24T18:34:53.516Z,2.07
2018-08-24T18:37:28.080Z,1.70
2018-08-24T18:40:02.964Z,1.77
2018-08-24T18:42:37.500Z,1.50
2018-08-24T18:45:12.514Z,1.67
2018-08-24T18:47:47.048Z,1.50
2018-08-24T18:50:21.845Z,2.23
2018-08-24T18:52:56.476Z,1.65
2018-08-24T18:55:31.198Z,1.90
2018-08-24T18:58:06.039Z,1.60
2018-08-24T19:00:41.325Z,1.83
2018-08-24T19:03:16.328Z,1.80
2018-08-24T19:05:51.349Z,2.83
2018-08-24T19:08:25.977Z,1.73
2018-08-24T19:11:05.822Z,2.23
2018-08-24T19:13:41.017Z,2.20
2018-08-24T19:16:15.681Z,2.00
2018-08-24T19:18:55.438Z,1.90
2018-08-24T19:21:35.217Z,1.60
2018-08-24T19:24:10.357Z,1.53
2018-08-24T19:26:44.996Z,1.90
2018-08-24T19:29:24.857Z,1.53
2018-08-24T19:31:59.859Z,1.70
2018-08-24T19:34:34.628Z,1.70
2018-08-24T19:37:09.358Z,1.43
2018-08-24T19:39:48.108Z,1.87
2018-08-24T19:42:24.665Z,1.90
2018-08-24T19:44:59.457Z,1.93
2018-08-24T19:47:39.334Z,1.70
2018-08-24T19:50:14.035Z,2.00
2018-08-24T19:52:48.628Z,2.37
2018-08-24T19:55:23.869Z,2.10
2018-08-24T19:58:03.506Z,1.60
2018-08-24T20:00:38.153Z,1.60
2018-08-24T20:03:12.796Z,1.80
2018-08-24T20:05:53.186Z,2.13
2018-08-24T20:09:34.021Z,2.20
2018-08-24T20:12:08.888Z,2.67
2018-08-24T20:14:49.178Z,2.35
2018-08-24T20:17:28.010Z,2.40
2018-08-24T20:20:02.648Z,2.23
2018-08-24T20:22:37.579Z,3.03
2018-08-24T20:25:12.277Z,2.80
2018-08-24T20:27:46.917Z,1.70
2018-08-24T20:30:21.623Z,2.20
2018-08-24T20:32:56.561Z,1.60
2018-08-24T20:35:31.246Z,2.02
2018-08-24T20:38:06.233Z,2.00
2018-08-24T20:40:40.760Z,1.50
2018-08-24T20:43:15.422Z,1.83
2018-08-24T20:45:50.365Z,2.33
2018-08-24T20:48:25.341Z,1.27
2018-08-24T20:50:59.761Z,1.73
2018-08-24T20:53:34.359Z,1.53
2018-08-24T20:56:09.141Z,1.60
2018-08-24T20:58:44.041Z,1.60
2018-08-24T21:01:18.923Z,1.70
2018-08-24T21:03:53.491Z,1.80
2018-08-24T21:06:28.203Z,1.60
2018-08-24T21:09:02.773Z,1.70
2018-08-24T21:11:37.406Z,1.50
2018-08-24T21:14:12.129Z,1.90
2018-08-24T21:16:46.829Z,1.60
2018-08-24T21:19:21.297Z,2.00
2018-08-24T21:21:56.278Z,2.17
2018-08-24T21:24:30.866Z,1.70
2018-08-24T21:27:05.806Z,1.60
2018-08-24T21:29:40.324Z,1.83
2018-08-24T21:32:14.901Z,1.70
2018-08-24T21:34:49.482Z,1.60
2018-08-24T21:37:24.149Z,1.83
2018-08-24T21:39:58.717Z,2.03
2018-08-24T21:42:33.384Z,1.80
2018-08-24T21:45:08.722Z,2.27
2018-08-24T21:47:43.279Z,1.40
2018-08-24T21:50:17.897Z,1.73
2018-08-24T21:52:52.497Z,1.60
2018-08-24T21:55:27.298Z,1.77
2018-08-24T21:58:01.878Z,1.60
2018-08-24T22:00:40.751Z,1.80
2018-08-24T22:03:15.776Z,1.50
2018-08-24T22:05:50.731Z,1.97
2018-08-24T22:08:25.405Z,1.60
2018-08-24T22:10:59.972Z,1.60
2018-08-24T22:13:34.681Z,1.90
2018-08-24T22:16:09.368Z,1.67
2018-08-24T22:18:43.965Z,1.57
2018-08-24T22:21:18.646Z,1.33
2018-08-24T22:23:53.375Z,1.67
2018-08-24T22:26:27.901Z,1.40
2018-08-24T22:29:02.484Z,1.47
2018-08-24T22:31:37.683Z,1.60
2018-08-24T22:34:12.437Z,1.30
2018-08-24T22:36:47.037Z,1.60
2018-08-24T22:39:21.629Z,1.27
2018-08-24T22:41:56.363Z,1.60
2018-08-24T22:44:30.954Z,1.50
2018-08-24T22:47:06.133Z,1.13
2018-08-24T22:49:40.768Z,1.35
2018-08-24T22:52:15.353Z,1.23
2018-08-24T22:54:50.107Z,1.40
2018-08-24T22:57:24.810Z,1.80
2018-08-24T22:59:59.585Z,1.17
2018-08-24T23:02:34.304Z,1.50
2018-08-24T23:05:09.712Z,1.57
2018-08-24T23:07:44.345Z,1.20
2018-08-24T23:10:18.873Z,1.67
2018-08-24T23:12:53.452Z,1.37
2018-08-24T23:15:27.977Z,1.63
2018-08-24T23:18:02.598Z,1.30
2018-08-24T23:20:37.200Z,2.13
2018-08-24T23:23:11.728Z,1.40
2018-08-24T23:25:46.459Z,1.50
2018-08-24T23:28:21.105Z,1.80
2018-08-24T23:30:55.692Z,1.73
2018-08-24T23:33:30.227Z,1.73
2018-08-24T23:36:05.397Z,1.57
2018-08-24T23:38:40.018Z,1.37
2018-08-24T23:41:14.476Z,1.20
2018-08-24T23:43:49.307Z,1.50
2018-08-24T23:46:24.716Z,1.20
2018-08-24T23:48:59.251Z,1.83
2018-08-24T23:51:33.802Z,1.67
2018-08-24T23:54:08.523Z,1.10
2018-08-24T23:56:43.280Z,1.40
2018-08-24T23:59:18.034Z,1.43
